Time;durP1;ratioP1;P1;durP2;ratioP2;P2;SDS_P1;SDS_P2;PMS_P1;PMS_P2;Temp;Humidity;BMP_temperature;BMP_pressure;BME280_temperature;BME280_humidity;BME280_pressure;Samples;Min_cycle;Max_cycle;Signal;HPM_P1;HPM_P2
2021/05/02 00:02:12;;;;;;;5.03;4.15;;;6.90;99.90;;;;;;5036524;28;20056;-79
2021/05/02 00:04:42;;;;;;;3.55;3.25;;;6.90;99.90;;;;;;5068960;28;20044;-79
2021/05/02 00:07:12;;;;;;;4.50;4.20;;;6.90;99.90;;;;;;5069889;28;20040;-80
2021/05/02 00:09:40;;;;;;;5.80;5.40;;;6.80;99.90;;;;;;5035893;28;20064;-79
2021/05/02 00:12:08;;;;;;;4.18;3.42;;;6.80;99.90;;;;;;5051771;28;20052;-80
2021/05/02 00:14:35;;;;;;;3.88;3.47;;;6.80;99.90;;;;;;5051848;28;20057;-80
2021/05/02 00:17:03;;;;;;;4.97;4.50;;;6.70;99.90;;;;;;5035518;28;20061;-81
2021/05/02 00:19:41;;;;;;;4.88;4.30;;;6.70;99.90;;;;;;5029716;28;20037;-85
2021/05/02 00:22:10;;;;;;;4.65;4.25;;;6.60;99.90;;;;;;5016025;28;20053;-83
2021/05/02 00:24:39;;;;;;;5.10;4.60;;;6.70;99.90;;;;;;5032462;28;20037;-86
2021/05/02 00:27:21;;;;;;;5.55;4.47;;;6.60;99.90;;;;;;5017216;28;20049;-86
2021/05/02 00:30:03;;;;;;;6.20;4.22;;;6.60;99.90;;;;;;5019972;28;20060;-87
2021/05/02 00:32:30;;;;;;;3.90;3.60;;;6.60;99.90;;;;;;5019283;28;20048;-90
2021/05/02 00:34:59;;;;;;;5.05;4.38;;;6.60;99.90;;;;;;5022675;28;20045;-87
2021/05/02 00:37:29;;;;;;;6.68;5.25;;;6.50;99.90;;;;;;5056136;28;20476;-86
2021/05/02 00:39:57;;;;;;;7.05;5.03;;;6.40;99.90;;;;;;5021825;28;20417;-90
2021/05/02 00:42:29;;;;;;;4.57;4.18;;;6.50;99.90;;;;;;5055642;28;20067;-86
2021/05/02 00:45:08;;;;;;;6.32;5.72;;;6.50;99.90;;;;;;5039684;28;20067;-86
2021/05/02 00:47:38;;;;;;;5.55;5.05;;;6.50;99.90;;;;;;5055781;28;20558;-84
2021/05/02 00:50:09;;;;;;;9.13;6.03;;;6.40;99.90;;;;;;5054411;28;20367;-86
2021/05/02 00:52:46;;;;;;;;;;;6.40;99.90;;;;;;5038893;28;20045;-85
2021/05/02 00:55:19;;;;;;;6.65;5.93;;;6.40;99.90;;;;;;5035470;28;19920;-86
2021/05/02 00:57:58;;;;;;;5.75;5.15;;;6.40;99.90;;;;;;5010331;28;20402;-85
2021/05/02 01:00:31;;;;;;;8.60;7.90;;;6.40;99.90;;;;;;5035035;28;20041;-84
2021/05/02 01:03:03;;;;;;;6.32;5.68;;;6.40;99.90;;;;;;5020698;28;20052;-87
2021/05/02 01:05:43;;;;;;;5.00;4.50;;;6.30;99.90;;;;;;5024739;28;20056;-89
2021/05/02 01:08:12;;;;;;;;;;;6.30;99.90;;;;;;5022633;28;20048;-89
2021/05/02 01:10:41;;;;;;;5.82;5.30;;;6.30;99.90;;;;;;5038905;28;19920;-84
2021/05/02 01:13:14;;;;;;;5.40;4.45;;;6.30;99.90;;;;;;5038966;28;20044;-82
2021/05/02 01:15:46;;;;;;;4.25;3.85;;;6.30;99.90;;;;;;5054514;28;20044;-86
2021/05/02 01:18:21;;;;;;;4.60;4.07;;;6.30;99.90;;;;;;5028208;28;20066;-85
2021/05/02 01:20:50;;;;;;;5.53;4.35;;;6.30;99.90;;;;;;5039630;28;20055;-87
2021/05/02 01:23:22;;;;;;;6.47;5.43;;;6.30;99.90;;;;;;5054694;28;20513;-88
2021/05/02 01:25:58;;;;;;;3.72;3.42;;;6.30;99.90;;;;;;5055316;28;20045;-85
2021/05/02 01:28:29;;;;;;;4.82;4.38;;;6.20;99.90;;;;;;5054601;28;20037;-87
2021/05/02 01:30:58;;;;;;;5.22;3.85;;;6.20;99.90;;;;;;5037800;28;20039;-85
2021/05/02 01:33:26;;;;;;;5.03;4.63;;;6.20;99.90;;;;;;5024661;28;20829;-84
2021/05/02 01:35:55;;;;;;;4.88;4.35;;;6.20;99.90;;;;;;5029653;28;20048;-84
2021/05/02 01:38:23;;;;;;;3.78;3.17;;;6.10;99.90;;;;;;5037969;28;20053;-85
2021/05/02 01:40:54;;;;;;;3.97;3.67;;;6.20;99.90;;;;;;5053436;28;20044;-87
2021/05/02 01:43:22;;;;;;;3.95;3.58;;;6.10;99.90;;;;;;5037768;28;20041;-86
2021/05/02 01:45:49;;;;;;;5.00;4.50;;;6.00;99.90;;;;;;5055101;28;20056;-85
2021/05/02 01:48:18;;;;;;;5.57;4.95;;;6.10;99.90;;;;;;5037724;28;20044;-84
2021/05/02 01:51:02;;;;;;;5.45;4.88;;;6.10;99.90;;;;;;5023033;28;20397;-84
2021/05/02 01:53:30;;;;;;;5.47;4.97;;;6.10;99.90;;;;;;5038867;28;20056;-82
2021/05/02 01:56:00;;;;;;;5.25;4.65;;;6.10;99.90;;;;;;5054107;28;20044;-82
2021/05/02 01:58:35;;;;;;;5.28;4.60;;;6.00;99.90;;;;;;5038303;28;20052;-83
2021/05/02 02:01:07;;;;;;;4.53;4.13;;;6.00;99.90;;;;;;5054363;28;20048;-84
2021/05/02 02:03:36;;;;;;;3.13;2.92;;;5.90;99.90;;;;;;5037805;28;20051;-81
2021/05/02 02:06:06;;;;;;;4.53;4.10;;;5.90;99.90;;;;;;5037642;28;20493;-81
2021/05/02 02:08:34;;;;;;;4.45;4.05;;;5.90;99.90;;;;;;5071028;28;20524;-81
2021/05/02 02:11:04;;;;;;;3.13;2.80;;;5.80;99.90;;;;;;5005349;28;20127;-82
2021/05/02 02:13:46;;;;;;;3.08;2.88;;;5.80;99.90;;;;;;5039975;28;20512;-81
2021/05/02 02:16:14;;;;;;;4.20;3.70;;;5.70;99.90;;;;;;5071473;28;20052;-82
2021/05/02 02:18:42;;;;;;;3.05;2.85;;;5.70;99.90;;;;;;5020750;28;20048;-84
2021/05/02 02:21:12;;;;;;;4.22;3.53;;;5.60;99.90;;;;;;5050701;28;20053;-81
2021/05/02 02:23:43;;;;;;;3.40;3.10;;;5.60;99.90;;;;;;5051676;28;20072;-80
2021/05/02 02:26:23;;;;;;;2.58;2.38;;;5.50;99.90;;;;;;5032714;28;20064;-81
2021/05/02 02:28:54;;;;;;;2.60;2.40;;;5.40;99.90;;;;;;5052135;28;20052;-81
2021/05/02 02:31:22;;;;;;;2.55;2.35;;;5.40;99.90;;;;;;5049613;28;20045;-81
2021/05/02 02:33:51;;;;;;;2.42;1.98;;;5.30;99.90;;;;;;5051939;28;20041;-83
2021/05/02 02:36:18;;;;;;;2.17;2.05;;;5.30;99.90;;;;;;5047936;28;20040;-82
2021/05/02 02:38:46;;;;;;;2.00;1.90;;;5.30;99.90;;;;;;5053325;28;20055;-80
2021/05/02 02:41:16;;;;;;;2.40;2.20;;;5.20;99.90;;;;;;5071497;28;20056;-82
2021/05/02 02:43:55;;;;;;;2.13;2.00;;;5.20;99.90;;;;;;5020451;28;20045;-81
2021/05/02 02:46:24;;;;;;;1.92;1.83;;;5.20;99.90;;;;;;5053443;28;20489;-83
2021/05/02 02:48:57;;;;;;;1.58;1.48;;;5.10;99.90;;;;;;5053686;28;20049;-83
2021/05/02 02:51:28;;;;;;;1.45;1.35;;;5.10;99.90;;;;;;5051876;28;20041;-82
2021/05/02 02:53:58;;;;;;;1.65;1.55;;;5.10;99.90;;;;;;5018129;28;20044;-83
2021/05/02 02:56:29;;;;;;;4.57;1.45;;;5.00;99.90;;;;;;5016688;28;20494;-83
2021/05/02 02:59:21;;;;;;;1.60;1.50;;;5.10;99.90;;;;;;5032912;28;20037;-83
2021/05/02 03:01:49;;;;;;;1.60;1.50;;;4.90;99.90;;;;;;5032848;28;20053;-83
2021/05/02 03:04:19;;;;;;;1.35;1.30;;;5.00;99.90;;;;;;5033035;28;20052;-81
2021/05/02 03:06:51;;;;;;;1.02;1.02;;;4.90;99.90;;;;;;5033932;28;20513;-83
2021/05/02 03:09:19;;;;;;;1.45;1.35;;;4.80;99.90;;;;;;5052626;28;20052;-81
2021/05/02 03:11:47;;;;;;;1.55;1.25;;;4.80;99.90;;;;;;5052456;28;20508;-81
2021/05/02 03:14:15;;;;;;;1.58;1.48;;;4.80;99.90;;;;;;5051789;28;20397;-82
2021/05/02 03:16:45;;;;;;;1.15;1.05;;;4.70;99.90;;;;;;5036457;28;20044;-80
2021/05/02 03:19:34;;;;;;;1.08;1.08;;;4.70;99.90;;;;;;5052356;28;20052;-80
2021/05/02 03:22:15;;;;;;;1.40;1.30;;;4.60;99.90;;;;;;5052811;28;20052;-81
2021/05/02 03:24:48;;;;;;;2.33;1.33;;;4.50;99.90;;;;;;5019148;28;20493;-79
2021/05/02 03:27:26;;;;;;;1.17;1.17;;;4.50;99.90;;;;;;5052903;28;20047;-81
2021/05/02 03:29:57;;;;;;;0.90;0.90;;;4.50;99.90;;;;;;5054279;28;20048;-80
2021/05/02 03:32:30;;;;;;;;;;;4.40;99.90;;;;;;4993173;28;20510;-80
2021/05/02 03:34:59;;;;;;;1.52;1.42;;;4.40;99.90;;;;;;5009168;28;19921;-80
2021/05/02 03:37:32;;;;;;;1.40;1.30;;;4.40;99.90;;;;;;5011244;28;20403;-80
2021/05/02 03:40:01;;;;;;;1.10;1.00;;;4.40;99.90;;;;;;5034323;28;20039;-79
2021/05/02 03:42:29;;;;;;;1.00;1.00;;;4.40;99.90;;;;;;5069894;28;20048;-81
2021/05/02 03:44:56;;;;;;;1.00;1.00;;;4.20;99.90;;;;;;5070373;28;20048;-81
2021/05/02 03:47:23;;;;;;;1.17;1.17;;;4.30;99.90;;;;;;5070117;28;20418;-81
2021/05/02 03:49:51;;;;;;;0.90;0.90;;;4.20;99.90;;;;;;5069997;28;20052;-80
2021/05/02 03:52:18;;;;;;;0.90;0.90;;;4.20;99.90;;;;;;5070349;28;20044;-80
2021/05/02 03:54:51;;;;;;;1.00;1.00;;;4.20;99.90;;;;;;5070347;28;20047;-81
2021/05/02 03:57:19;;;;;;;0.90;0.90;;;4.10;99.90;;;;;;5070713;28;20044;-81
2021/05/02 03:59:47;;;;;;;1.27;1.25;;;4.10;99.90;;;;;;5069218;28;20045;-84
2021/05/02 04:02:16;;;;;;;0.98;0.98;;;4.20;99.90;;;;;;5051769;28;20060;-81
2021/05/02 04:04:45;;;;;;;0.85;0.85;;;4.00;99.90;;;;;;5019413;28;20485;-80
2021/05/02 04:07:14;;;;;;;1.00;0.98;;;4.00;99.90;;;;;;5051917;28;20044;-83
2021/05/02 04:09:45;;;;;;;0.88;0.88;;;4.10;99.90;;;;;;5070615;28;20056;-82
2021/05/02 04:12:14;;;;;;;0.90;0.90;;;4.00;99.90;;;;;;5069634;28;20051;-82
2021/05/02 04:14:41;;;;;;;1.00;1.00;;;4.00;99.90;;;;;;5069503;28;20041;-82
2021/05/02 04:17:10;;;;;;;0.80;0.80;;;4.00;99.90;;;;;;5069459;28;20056;-80
2021/05/02 04:19:41;;;;;;;0.90;0.90;;;4.00;99.90;;;;;;5063171;28;20033;-80
2021/05/02 04:22:12;;;;;;;0.90;0.90;;;4.00;99.90;;;;;;5015782;28;20060;-82
2021/05/02 04:24:40;;;;;;;1.27;1.17;;;3.90;99.90;;;;;;5049730;28;20532;-82
2021/05/02 04:27:07;;;;;;;1.08;1.08;;;3.90;99.90;;;;;;5042065;28;20042;-80
2021/05/02 04:29:37;;;;;;;0.98;0.98;;;3.90;99.90;;;;;;5029979;28;20049;-81
2021/05/02 04:32:04;;;;;;;1.00;1.00;;;3.90;99.90;;;;;;5029742;28;20049;-81
2021/05/02 04:34:32;;;;;;;1.15;1.13;;;3.90;99.90;;;;;;5012255;28;20403;-80
2021/05/02 04:36:59;;;;;;;3.30;1.35;;;3.90;99.90;;;;;;5029296;28;20053;-84
2021/05/02 04:39:28;;;;;;;1.60;1.50;;;3.90;99.90;;;;;;4983160;28;20049;-80
2021/05/02 04:41:56;;;;;;;1.40;1.40;;;4.00;99.90;;;;;;5049569;28;20584;-81
2021/05/02 04:44:25;;;;;;;1.55;1.45;;;3.90;99.90;;;;;;5031490;28;20528;-81
2021/05/02 04:46:53;;;;;;;2.38;2.25;;;4.00;99.90;;;;;;5031547;28;20033;-82
2021/05/02 04:49:21;;;;;;;1.50;1.40;;;4.00;99.90;;;;;;5015801;28;20521;-81
2021/05/02 04:51:49;;;;;;;1.70;1.60;;;4.00;99.90;;;;;;5048322;28;20045;-80
2021/05/02 04:54:17;;;;;;;1.55;1.45;;;4.00;99.90;;;;;;5048920;28;20087;-80
2021/05/02 04:56:44;;;;;;;1.40;1.35;;;4.10;99.90;;;;;;5049896;28;20078;-81
2021/05/02 04:59:11;;;;;;;2.05;1.90;;;4.00;99.90;;;;;;5049195;28;20659;-80
2021/05/02 05:01:42;;;;;;;2.20;2.00;;;3.90;99.90;;;;;;5049573;28;20486;-83
2021/05/02 05:04:10;;;;;;;1.50;1.40;;;4.00;99.90;;;;;;5049120;28;20056;-80
2021/05/02 05:06:37;;;;;;;1.30;1.27;;;4.00;99.90;;;;;;5049440;28;20051;-81
2021/05/02 05:09:06;;;;;;;1.75;1.65;;;4.10;99.90;;;;;;5032302;28;20063;-79
2021/05/02 05:11:34;;;;;;;2.83;2.63;;;4.00;99.90;;;;;;5049140;28;20045;-81
2021/05/02 05:14:01;;;;;;;2.40;2.20;;;4.00;99.90;;;;;;5049839;28;20113;-80
2021/05/02 05:16:29;;;;;;;1.92;1.83;;;4.00;99.90;;;;;;5049486;28;20049;-79
2021/05/02 05:18:57;;;;;;;2.28;2.08;;;4.00;99.90;;;;;;5052862;28;20056;-80
2021/05/02 05:21:25;;;;;;;2.20;2.00;;;4.00;99.90;;;;;;5051954;28;20064;-80
2021/05/02 05:23:52;;;;;;;1.58;1.48;;;4.00;99.90;;;;;;5052443;28;20037;-81
2021/05/02 05:26:20;;;;;;;1.88;1.77;;;4.10;99.90;;;;;;5053457;28;20049;-81
2021/05/02 05:28:48;;;;;;;2.10;1.90;;;4.00;99.90;;;;;;5072048;28;20102;-81
2021/05/02 05:31:16;;;;;;;2.17;2.03;;;4.10;99.90;;;;;;5072452;28;20055;-83
2021/05/02 05:33:43;;;;;;;2.35;2.15;;;4.10;99.90;;;;;;5072605;28;20052;-80
2021/05/02 05:36:10;;;;;;;3.50;3.22;;;4.10;99.90;;;;;;5054403;28;20056;-80
2021/05/02 05:38:38;;;;;;;2.95;2.75;;;4.00;99.90;;;;;;5072603;28;20531;-81
2021/05/02 05:41:05;;;;;;;2.95;2.75;;;4.10;99.90;;;;;;5072783;28;20045;-80
2021/05/02 05:43:33;;;;;;;2.80;2.60;;;4.10;99.90;;;;;;5054743;28;20473;-83
2021/05/02 05:46:00;;;;;;;2.38;2.17;;;4.10;99.90;;;;;;5054732;28;20056;-80
2021/05/02 05:48:28;;;;;;;3.00;2.75;;;4.20;99.90;;;;;;5071964;28;20051;-81
2021/05/02 05:50:55;;;;;;;5.75;2.17;;;4.10;99.90;;;;;;5052958;28;20409;-81
2021/05/02 05:53:23;;;;;;;2.55;2.35;;;4.10;99.90;;;;;;5073354;28;20051;-80
2021/05/02 05:55:50;;;;;;;2.22;2.03;;;4.10;99.90;;;;;;5072667;28;20043;-80
2021/05/02 05:58:19;;;;;;;1.80;1.70;;;4.10;99.90;;;;;;5072044;28;20063;-81
2021/05/02 06:00:47;;;;;;;1.67;1.58;;;4.10;99.90;;;;;;5037965;28;20055;-79
2021/05/02 06:03:14;;;;;;;1.45;1.35;;;4.00;99.90;;;;;;5071872;28;20501;-80
2021/05/02 06:05:42;;;;;;;1.60;1.50;;;4.00;99.90;;;;;;5072331;28;20059;-80
2021/05/02 06:08:09;;;;;;;1.85;1.75;;;3.90;99.90;;;;;;5054335;28;20047;-80
2021/05/02 06:10:36;;;;;;;1.63;1.50;;;3.90;99.90;;;;;;5054062;28;20032;-81
2021/05/02 06:13:03;;;;;;;1.40;1.30;;;4.00;99.90;;;;;;5053964;28;20053;-80
2021/05/02 06:15:31;;;;;;;1.75;1.65;;;4.00;99.90;;;;;;5052985;28;20045;-80
2021/05/02 06:17:59;;;;;;;1.38;1.27;;;4.00;99.90;;;;;;5054501;28;20045;-81
2021/05/02 06:20:26;;;;;;;1.77;1.67;;;3.90;99.90;;;;;;5053009;28;20687;-80
2021/05/02 06:22:54;;;;;;;1.20;1.20;;;3.90;99.90;;;;;;5037134;28;20490;-79
2021/05/02 06:25:21;;;;;;;1.40;1.30;;;3.80;99.90;;;;;;5054614;28;20051;-80
2021/05/02 06:27:49;;;;;;;1.60;1.50;;;3.90;99.90;;;;;;5071344;28;20044;-79
2021/05/02 06:30:16;;;;;;;1.30;1.25;;;3.80;99.90;;;;;;5036674;28;20048;-81
2021/05/02 06:32:44;;;;;;;1.92;1.83;;;3.80;99.90;;;;;;5053928;28;20048;-81
2021/05/02 06:35:11;;;;;;;1.98;1.77;;;3.80;99.90;;;;;;5071198;28;20044;-82
2021/05/02 06:37:39;;;;;;;1.70;1.60;;;3.80;99.90;;;;;;5037512;28;20048;-80
2021/05/02 06:40:07;;;;;;;2.45;2.25;;;3.80;99.90;;;;;;5071513;28;20056;-79
2021/05/02 06:42:34;;;;;;;1.90;1.80;;;3.90;99.90;;;;;;5035977;28;20048;-78
2021/05/02 06:45:03;;;;;;;1.73;1.63;;;4.00;99.90;;;;;;5071411;28;20079;-80
2021/05/02 06:47:30;;;;;;;1.83;1.73;;;4.00;99.90;;;;;;5070449;28;20055;-80
2021/05/02 06:49:58;;;;;;;2.00;1.90;;;4.00;99.90;;;;;;5036563;28;20053;-81
2021/05/02 06:52:25;;;;;;;2.28;2.10;;;4.00;99.90;;;;;;5071002;28;20048;-81
2021/05/02 06:54:54;;;;;;;2.30;2.10;;;4.10;99.90;;;;;;5052593;28;20051;-82
2021/05/02 06:57:21;;;;;;;2.72;2.53;;;4.00;99.90;;;;;;5064569;28;20064;-80
2021/05/02 06:59:49;;;;;;;3.22;2.35;;;4.00;99.90;;;;;;5048024;28;20049;-80
2021/05/02 07:02:17;;;;;;;2.97;2.63;;;4.10;99.90;;;;;;5050419;28;20405;-80
2021/05/02 07:04:45;;;;;;;2.70;2.50;;;4.10;99.90;;;;;;5016859;28;20049;-79
2021/05/02 07:07:12;;;;;;;2.75;2.55;;;4.20;99.90;;;;;;5050548;28;20057;-79
2021/05/02 07:09:41;;;;;;;2.47;2.28;;;4.30;99.90;;;;;;5051155;28;20045;-81
2021/05/02 07:12:08;;;;;;;2.63;2.53;;;4.30;99.90;;;;;;5050708;28;20049;-80
2021/05/02 07:14:35;;;;;;;3.85;3.40;;;4.20;99.90;;;;;;5050858;28;20112;-81
2021/05/02 07:17:08;;;;;;;4.20;3.90;;;4.30;99.90;;;;;;5049115;28;20071;-81
2021/05/02 07:19:40;;;;;;;3.15;2.88;;;4.20;99.90;;;;;;5054859;28;20413;-81
2021/05/02 07:22:08;;;;;;;3.38;3.15;;;4.20;99.90;;;;;;5070276;28;20485;-80
2021/05/02 07:24:36;;;;;;;4.97;4.20;;;4.30;99.90;;;;;;5070825;28;20048;-81
2021/05/02 07:27:03;;;;;;;3.65;3.35;;;4.30;99.90;;;;;;5069890;28;20044;-82
2021/05/02 07:29:32;;;;;;;3.30;3.05;;;4.20;99.90;;;;;;5071139;28;20064;-80
2021/05/02 07:31:59;;;;;;;4.03;3.72;;;4.20;99.90;;;;;;5067709;28;20051;-80
2021/05/02 07:34:26;;;;;;;3.88;3.45;;;4.40;99.90;;;;;;5050017;28;20075;-81
2021/05/02 07:36:55;;;;;;;5.40;4.90;;;4.40;99.90;;;;;;5069108;28;20060;-81
2021/05/02 07:39:22;;;;;;;4.95;4.47;;;4.40;99.90;;;;;;5051881;28;20584;-82
2021/05/02 07:41:50;;;;;;;4.45;4.05;;;4.40;99.90;;;;;;5070431;28;20056;-80
2021/05/02 07:44:17;;;;;;;4.45;4.05;;;4.40;99.90;;;;;;5070183;28;20055;-82
2021/05/02 07:46:47;;;;;;;4.75;4.32;;;4.40;99.90;;;;;;5070117;28;20043;-82
2021/05/02 07:49:14;;;;;;;6.68;6.07;;;4.30;99.90;;;;;;5069966;28;20053;-81
2021/05/02 07:51:42;;;;;;;4.15;3.78;;;4.30;99.90;;;;;;5051774;28;20083;-81
2021/05/02 07:54:09;;;;;;;5.20;4.70;;;4.30;99.90;;;;;;5070665;28;20052;-82
2021/05/02 07:56:37;;;;;;;5.82;5.32;;;4.30;99.90;;;;;;5069050;28;20052;-83
2021/05/02 07:59:04;;;;;;;4.72;4.25;;;4.30;99.90;;;;;;5052153;28;20048;-79
2021/05/02 08:01:31;;;;;;;5.70;5.15;;;4.30;99.90;;;;;;5069481;28;20057;-81
2021/05/02 08:03:59;;;;;;;5.90;5.38;;;4.40;99.90;;;;;;5035051;28;20055;-81
2021/05/02 08:06:26;;;;;;;5.20;4.68;;;4.40;99.90;;;;;;5052128;28;20390;-79
2021/05/02 08:08:54;;;;;;;6.07;5.40;;;4.50;99.90;;;;;;5052933;28;20056;-79
2021/05/02 08:11:22;;;;;;;7.38;6.68;;;4.50;99.90;;;;;;5051907;28;20531;-77
2021/05/02 08:13:49;;;;;;;10.60;7.20;;;4.60;99.90;;;;;;5070435;28;20052;-79
2021/05/02 08:16:17;;;;;;;8.25;6.18;;;4.60;99.90;;;;;;5069126;28;20528;-78
2021/05/02 08:18:44;;;;;;;10.07;8.93;;;4.60;99.90;;;;;;5051576;28;20044;-78
2021/05/02 08:21:11;;;;;;;8.82;8.02;;;4.60;99.90;;;;;;5068220;28;20049;-78
2021/05/02 08:23:39;;;;;;;8.27;7.40;;;4.60;99.90;;;;;;5069595;28;20048;-78
2021/05/02 08:26:06;;;;;;;9.40;8.02;;;4.60;99.90;;;;;;5070166;28;20053;-78
2021/05/02 08:28:38;;;;;;;10.75;9.60;;;4.60;99.90;;;;;;5069882;28;20049;-78
2021/05/02 08:31:13;;;;;;;11.52;9.43;;;4.70;99.90;;;;;;5034443;28;20059;-78
2021/05/02 08:33:41;;;;;;;12.57;10.30;;;4.70;99.90;;;;;;5069856;28;20576;-78
2021/05/02 08:36:08;;;;;;;11.93;9.63;;;4.70;99.90;;;;;;5051610;28;20044;-78
2021/05/02 08:38:36;;;;;;;17.80;7.72;;;4.60;99.90;;;;;;5069026;28;20055;-78
2021/05/02 08:41:06;;;;;;;11.07;8.35;;;4.60;99.90;;;;;;5070175;28;20059;-79
2021/05/02 08:43:34;;;;;;;11.90;8.70;;;4.60;99.90;;;;;;5050444;28;20053;-80
2021/05/02 08:46:03;;;;;;;9.43;8.43;;;4.60;99.90;;;;;;5069697;28;20072;-76
2021/05/02 08:48:30;;;;;;;10.25;9.02;;;4.60;99.90;;;;;;5051832;28;20045;-77
2021/05/02 08:51:00;;;;;;;13.57;11.00;;;4.60;99.90;;;;;;5069111;28;20048;-80
2021/05/02 08:53:29;;;;;;;14.85;11.25;;;4.50;99.90;;;;;;5056638;28;20059;-78
2021/05/02 08:55:57;;;;;;;13.07;10.40;;;4.50;99.90;;;;;;5055257;28;20048;-79
2021/05/02 08:58:25;;;;;;;13.63;11.70;;;4.50;99.90;;;;;;5057754;28;20057;-78
2021/05/02 09:00:56;;;;;;;14.45;12.52;;;4.50;99.90;;;;;;5035355;28;20496;-80
2021/05/02 09:03:46;;;;;;;16.58;12.95;;;4.50;99.90;;;;;;5035578;28;20045;-81
2021/05/02 09:06:18;;;;;;;18.08;14.23;;;4.60;99.90;;;;;;5034657;28;20052;-78
2021/05/02 09:08:51;;;;;;;15.07;12.23;;;4.60;99.90;;;;;;5017717;28;20048;-78
2021/05/02 09:11:38;;;;;;;14.10;12.43;;;4.60;99.90;;;;;;5052517;28;20389;-73
2021/05/02 09:14:23;;;;;;;16.25;13.20;;;4.70;99.90;;;;;;5052962;28;20072;-72
2021/05/02 09:16:52;;;;;;;19.08;17.17;;;4.80;99.90;;;;;;5033900;28;20052;-73
2021/05/02 09:19:21;;;;;;;19.73;17.73;;;4.70;99.90;;;;;;5053953;28;20037;-73
2021/05/02 09:21:50;;;;;;;18.20;13.57;;;4.70;99.90;;;;;;5072922;28;20049;-71
2021/05/02 09:24:27;;;;;;;23.27;16.00;;;4.70;99.90;;;;;;5072886;28;20044;-72
2021/05/02 09:27:14;;;;;;;19.48;17.20;;;4.80;99.90;;;;;;5072549;28;20036;-72
2021/05/02 09:29:52;;;;;;;21.65;16.73;;;4.70;99.90;;;;;;5072400;28;20051;-72
2021/05/02 09:32:39;;;;;;;24.90;16.20;;;4.70;99.90;;;;;;5066920;28;20052;-72
2021/05/02 09:35:21;;;;;;;19.65;16.95;;;4.70;99.90;;;;;;5056481;28;20048;-72
2021/05/02 09:37:48;;;;;;;21.00;18.70;;;4.80;99.90;;;;;;5072360;28;20060;-72
2021/05/02 09:40:18;;;;;;;19.63;15.93;;;4.90;99.90;;;;;;5071118;28;20669;-72
2021/05/02 09:42:49;;;;;;;26.25;23.52;;;5.00;99.90;;;;;;5071291;28;20512;-73
2021/05/02 09:45:16;;;;;;;26.67;19.33;;;5.00;99.90;;;;;;5053631;28;20060;-72
2021/05/02 09:47:46;;;;;;;22.80;19.35;;;5.20;99.90;;;;;;5071202;28;20049;-71
2021/05/02 09:50:25;;;;;;;19.27;17.27;;;5.30;99.90;;;;;;5069884;28;20056;-72
2021/05/02 09:53:07;;;;;;;22.02;17.58;;;5.40;99.90;;;;;;5051225;28;20048;-71
2021/05/02 09:55:44;;;;;;;23.33;18.80;;;5.40;99.90;;;;;;5070653;28;20041;-72
2021/05/02 09:58:16;;;;;;;19.80;16.30;;;5.30;99.90;;;;;;5071783;28;20056;-72
2021/05/02 10:00:51;;;;;;;20.33;16.85;;;5.30;99.90;;;;;;5070242;28;20045;-71
2021/05/02 10:03:25;;;;;;;18.90;15.48;;;5.40;99.90;;;;;;5069989;28;20048;-72
2021/05/02 10:06:03;;;;;;;19.10;16.70;;;5.30;99.90;;;;;;5070571;28;20060;-72
2021/05/02 10:08:35;;;;;;;21.73;19.08;;;5.40;99.90;;;;;;5070640;28;20119;-72
2021/05/02 10:11:12;;;;;;;15.88;14.30;;;5.40;99.90;;;;;;5069880;28;20057;-72
2021/05/02 10:13:40;;;;;;;18.50;16.60;;;5.50;99.90;;;;;;5071165;28;20405;-72
2021/05/02 10:16:14;;;;;;;19.63;15.18;;;5.20;99.90;;;;;;5052801;28;20704;-72
2021/05/02 10:18:41;;;;;;;16.90;14.98;;;5.20;99.90;;;;;;5070659;28;20037;-72
2021/05/02 10:21:09;;;;;;;16.75;14.82;;;5.10;99.90;;;;;;5068537;28;20064;-73
2021/05/02 10:23:38;;;;;;;16.65;13.10;;;5.00;99.90;;;;;;5070732;28;20049;-73
2021/05/02 10:26:06;;;;;;;18.52;16.17;;;5.00;99.90;;;;;;5070999;28;20059;-74
2021/05/02 10:28:34;;;;;;;20.25;14.57;;;5.10;99.90;;;;;;5070912;28;20052;-73
2021/05/02 10:31:05;;;;;;;19.80;15.25;;;5.10;99.90;;;;;;5070215;28;20580;-72
2021/05/02 10:33:37;;;;;;;21.70;18.37;;;5.10;99.90;;;;;;5071285;28;20083;-73
2021/05/02 10:36:05;;;;;;;;;;;5.30;99.90;;;;;;5051551;28;20047;-74
2021/05/02 10:38:55;;;;;;;18.90;14.20;;;5.30;99.90;;;;;;5070616;28;19924;-75
2021/05/02 10:41:30;;;;;;;19.55;17.42;;;5.30;99.90;;;;;;5052852;28;20058;-74
2021/05/02 10:44:03;;;;;;;20.58;18.38;;;5.30;99.90;;;;;;5070114;28;20045;-75
2021/05/02 10:46:53;;;;;;;20.00;17.48;;;5.20;99.90;;;;;;5069639;28;20577;-74
2021/05/02 10:49:24;;;;;;;23.67;18.85;;;5.10;99.90;;;;;;5070557;28;20052;-75
2021/05/02 10:51:57;;;;;;;23.00;18.05;;;5.00;99.90;;;;;;5069495;28;20060;-73
2021/05/02 10:54:40;;;;;;;20.77;18.33;;;5.20;99.90;;;;;;5069474;28;20063;-75
2021/05/02 10:57:08;;;;;;;20.98;16.85;;;5.40;99.90;;;;;;5065895;28;20053;-73
2021/05/02 11:00:00;;;;;;;21.38;18.60;;;5.60;99.90;;;;;;5032304;28;20045;-77
2021/05/02 11:02:34;;;;;;;18.50;16.45;;;5.80;99.90;;;;;;5031733;28;20953;-74
2021/05/02 11:05:06;;;;;;;20.77;18.02;;;5.70;99.90;;;;;;5049677;28;20056;-74
2021/05/02 11:07:39;;;;;;;20.25;15.73;;;5.70;99.90;;;;;;5050419;28;20052;-73
2021/05/02 11:10:09;;;;;;;18.65;15.35;;;5.60;99.90;;;;;;5051211;28;20477;-73
2021/05/02 11:12:38;;;;;;;19.77;15.20;;;5.60;99.90;;;;;;5064459;28;20049;-74
2021/05/02 11:15:27;;;;;;;17.92;15.55;;;5.60;99.90;;;;;;5070028;28;20508;-75
2021/05/02 11:17:55;;;;;;;16.55;14.90;;;5.40;99.90;;;;;;5071374;28;20477;-75
2021/05/02 11:20:44;;;;;;;25.92;22.27;;;5.40;99.90;;;;;;5069306;28;20397;-76
2021/05/02 11:23:12;;;;;;;22.08;19.75;;;5.50;99.90;;;;;;5070715;28;20045;-75
2021/05/02 11:25:42;;;;;;;20.27;16.35;;;5.60;99.90;;;;;;5071498;28;20508;-74
2021/05/02 11:28:11;;;;;;;20.55;16.95;;;5.50;99.90;;;;;;5069806;28;20560;-73
2021/05/02 11:30:47;;;;;;;17.98;14.93;;;5.70;99.90;;;;;;5070161;28;20759;-73
2021/05/02 11:33:24;;;;;;;17.73;14.95;;;5.80;99.90;;;;;;5061246;28;20052;-75
2021/05/02 11:35:59;;;;;;;26.08;18.63;;;5.90;99.90;;;;;;5069729;28;20489;-74
2021/05/02 11:38:53;;;;;;;24.67;18.13;;;5.80;99.90;;;;;;5070569;28;20809;-75
2021/05/02 11:41:20;;;;;;;21.73;19.17;;;5.80;99.90;;;;;;5066929;28;20056;-76
2021/05/02 11:43:47;;;;;;;22.17;19.88;;;5.80;99.90;;;;;;5069395;28;20044;-74
2021/05/02 11:46:23;;;;;;;19.83;17.83;;;5.80;99.90;;;;;;5052363;28;20405;-77
2021/05/02 11:48:51;;;;;;;17.67;15.23;;;5.80;99.90;;;;;;5070692;28;20055;-76
2021/05/02 11:51:23;;;;;;;27.70;18.00;;;5.80;99.90;;;;;;5052250;28;20378;-75
2021/05/02 11:53:52;;;;;;;19.27;16.08;;;5.90;99.90;;;;;;5070990;28;20063;-75
2021/05/02 11:56:22;;;;;;;18.63;16.63;;;6.00;99.90;;;;;;5070257;28;20405;-78
2021/05/02 11:58:54;;;;;;;19.70;16.88;;;6.10;99.90;;;;;;5070247;28;20045;-75
2021/05/02 12:01:27;;;;;;;18.80;16.75;;;6.30;99.90;;;;;;5069612;28;20052;-74
2021/05/02 12:04:18;;;;;;;18.48;16.02;;;6.50;99.90;;;;;;5069564;28;20044;-75
2021/05/02 12:06:47;;;;;;;18.10;14.75;;;6.20;99.90;;;;;;5070069;28;20500;-76
2021/05/02 12:09:22;;;;;;;16.63;14.63;;;6.10;99.90;;;;;;5070145;28;20067;-76
2021/05/02 12:11:54;;;;;;;17.35;14.98;;;6.10;99.90;;;;;;5069158;28;20040;-75
2021/05/02 12:14:28;;;;;;;19.65;17.55;;;6.20;99.90;;;;;;5070010;28;20421;-74
2021/05/02 12:16:58;;;;;;;19.17;17.02;;;6.60;99.90;;;;;;5070213;28;20072;-74
2021/05/02 12:19:31;;;;;;;17.92;15.80;;;6.80;99.90;;;;;;5050222;28;20044;-75
2021/05/02 12:22:00;;;;;;;16.98;14.10;;;6.50;99.90;;;;;;5070498;28;20429;-74
2021/05/02 12:24:28;;;;;;;20.20;15.85;;;6.40;99.90;;;;;;5069991;28;20051;-74
2021/05/02 12:27:07;;;;;;;19.48;16.52;;;6.50;99.90;;;;;;5073575;28;20036;-74
2021/05/02 12:29:37;;;;;;;19.20;17.23;;;6.70;99.90;;;;;;5074506;28;20053;-74
2021/05/02 12:32:16;;;;;;;19.33;17.27;;;6.80;99.90;;;;;;5073700;28;20119;-75
2021/05/02 12:34:47;;;;;;;22.05;18.25;;;6.80;99.90;;;;;;5072712;28;20040;-75
2021/05/02 12:37:17;;;;;;;20.98;17.15;;;7.40;99.90;;;;;;5040044;28;20052;-75
2021/05/02 12:39:50;;;;;;;22.73;18.27;;;7.60;99.90;;;;;;5073924;28;20041;-74
2021/05/02 12:42:38;;;;;;;25.02;18.60;;;7.60;99.90;;;;;;5055840;28;20523;-75
2021/05/02 12:45:07;;;;;;;24.58;21.13;;;7.40;99.90;;;;;;5072982;28;20044;-75
2021/05/02 12:47:44;;;;;;;21.77;17.30;;;7.20;99.90;;;;;;5072465;28;20511;-75
2021/05/02 12:50:14;;;;;;;23.00;20.60;;;6.90;99.90;;;;;;5056395;28;20053;-76
2021/05/02 12:52:52;;;;;;;25.45;22.77;;;6.70;99.90;;;;;;5073025;28;20080;-79
2021/05/02 12:55:22;;;;;;;23.10;18.85;;;6.50;99.90;;;;;;5073265;28;20052;-78
2021/05/02 12:57:52;;;;;;;21.50;19.17;;;6.50;99.90;;;;;;5062629;28;20072;-77
2021/05/02 13:00:25;;;;;;;19.40;17.38;;;6.30;99.90;;;;;;5034646;28;20056;-80
2021/05/02 13:02:55;;;;;;;22.58;19.58;;;6.30;99.90;;;;;;5034969;28;20049;-79
2021/05/02 13:05:25;;;;;;;26.58;18.73;;;6.60;99.90;;;;;;5034864;28;20048;-80
2021/05/02 13:07:53;;;;;;;26.27;19.88;;;6.70;99.90;;;;;;5035442;28;20048;-78
2021/05/02 13:10:21;;;;;;;25.33;21.63;;;6.90;99.90;;;;;;5034862;28;20045;-80